Time;durP1;ratioP1;P1;durP2;ratioP2;P2;SDS_P1;SDS_P2;PMS_P1;PMS_P2;Temp;Humidity;BMP_temperature;BMP_pressure;BME280_temperature;BME280_humidity;BME280_pressure;Samples;Min_cycle;Max_cycle;Signal;HPM_P1;HPM_P2
2022/09/25 00:02:26;;;;;;;2.95;1.85;;;;;;;;;;5033445;28;20014;-71
2022/09/25 00:04:52;;;;;;;5.88;2.03;;;;;;;;;;5034119;28;20079;-71
2022/09/25 00:07:19;;;;;;;3.70;1.30;;;;;;;;;;5034105;28;20024;-71
2022/09/25 00:09:45;;;;;;;4.47;1.60;;;;;;;;;;5033486;28;20067;-71
2022/09/25 00:12:11;;;;;;;2.17;1.50;;;;;;;;;;5033731;28;20099;-71
2022/09/25 00:14:38;;;;;;;3.97;1.90;;;;;;;;;;5033881;28;20033;-71
2022/09/25 00:17:04;;;;;;;2.08;1.42;;;;;;;;;;5033304;28;20499;-71
2022/09/25 00:19:49;;;;;;;2.85;1.90;;;;;;;;;;5033585;28;20036;-72
2022/09/25 00:22:15;;;;;;;5.53;1.70;;;;;;;;;;5033837;28;20060;-72
2022/09/25 00:24:42;;;;;;;1.70;1.55;;;;;;;;;;5033415;28;20036;-71
2022/09/25 00:27:08;;;;;;;4.18;1.67;;;;;;;;;;5033304;28;20359;-72
2022/09/25 00:29:38;;;;;;;3.50;1.70;;;;;;;;;;5033445;28;20241;-72
2022/09/25 00:32:05;;;;;;;2.88;1.73;;;;;;;;;;5032950;28;20029;-72
2022/09/25 00:34:32;;;;;;;2.58;1.35;;;;;;;;;;5033319;28;20032;-71
2022/09/25 00:36:58;;;;;;;3.58;1.58;;;;;;;;;;5033289;28;20032;-72
2022/09/25 00:39:24;;;;;;;1.77;1.33;;;;;;;;;;5032936;28;20409;-71
2022/09/25 00:41:51;;;;;;;2.78;1.50;;;;;;;;;;5033160;28;20478;-71
2022/09/25 00:44:38;;;;;;;1.77;1.15;;;;;;;;;;5032012;28;20043;-72
2022/09/25 00:47:04;;;;;;;2.45;1.30;;;;;;;;;;5028090;28;20044;-72
2022/09/25 00:49:31;;;;;;;1.88;1.00;;;;;;;;;;5032889;28;20063;-71
2022/09/25 00:52:01;;;;;;;4.00;1.10;;;;;;;;;;5032879;28;20030;-71
2022/09/25 00:54:48;;;;;;;3.45;1.13;;;;;;;;;;5033142;28;20034;-71
2022/09/25 00:57:17;;;;;;;1.83;1.23;;;;;;;;;;5033116;28;20025;-71
2022/09/25 00:59:45;;;;;;;1.05;0.98;;;;;;;;;;5032337;28;20037;-71
2022/09/25 01:02:16;;;;;;;1.58;1.05;;;;;;;;;;5032556;28;20021;-72
2022/09/25 01:04:44;;;;;;;;;;;;;;;;;;5033064;28;20044;-72
2022/09/25 01:07:11;;;;;;;1.95;1.20;;;;;;;;;;5031522;28;20403;-72
2022/09/25 01:09:37;;;;;;;1.88;0.98;;;;;;;;;;5032548;28;20498;-71
2022/09/25 01:12:04;;;;;;;4.50;1.00;;;;;;;;;;5032491;28;20037;-71
2022/09/25 01:14:32;;;;;;;1.50;1.17;;;;;;;;;;5032624;28;20035;-71
2022/09/25 01:16:59;;;;;;;1.52;0.75;;;;;;;;;;5032332;28;20029;-71
2022/09/25 01:19:44;;;;;;;0.90;0.90;;;;;;;;;;5032393;28;20034;-71
2022/09/25 01:22:18;;;;;;;1.65;1.00;;;;;;;;;;5032658;28;20095;-71
2022/09/25 01:25:03;;;;;;;1.80;1.10;;;;;;;;;;5032169;28;20029;-71
2022/09/25 01:27:53;;;;;;;3.22;1.00;;;;;;;;;;5032581;28;20029;-71
2022/09/25 01:30:20;;;;;;;1.08;1.00;;;;;;;;;;5028756;28;20490;-71
2022/09/25 01:32:48;;;;;;;1.02;0.73;;;;;;;;;;5032264;28;20412;-71
2022/09/25 01:35:25;;;;;;;3.40;0.90;;;;;;;;;;5032501;28;20032;-71
2022/09/25 01:38:01;;;;;;;1.08;0.80;;;;;;;;;;5032019;28;20037;-72
2022/09/25 01:40:32;;;;;;;1.48;0.90;;;;;;;;;;5030955;28;20481;-71
2022/09/25 01:42:59;;;;;;;;;;;;;;;;;;5032592;28;20036;-71
2022/09/25 01:45:42;;;;;;;5.28;0.90;;;;;;;;;;5031581;28;19987;-71
2022/09/25 01:48:09;;;;;;;1.50;1.05;;;;;;;;;;5032441;28;20033;-72
2022/09/25 01:50:44;;;;;;;0.80;0.80;;;;;;;;;;5031999;28;20030;-71
2022/09/25 01:53:14;;;;;;;1.42;0.90;;;;;;;;;;5031933;28;20025;-71
2022/09/25 01:55:44;;;;;;;1.38;1.00;;;;;;;;;;5030946;28;20024;-72
2022/09/25 01:58:13;;;;;;;1.73;0.95;;;;;;;;;;5032129;28;20033;-72
2022/09/25 02:00:41;;;;;;;0.80;0.70;;;;;;;;;;5031647;28;20363;-71
2022/09/25 02:03:10;;;;;;;1.63;0.98;;;;;;;;;;5031931;28;20021;-70
2022/09/25 02:05:56;;;;;;;1.77;1.08;;;;;;;;;;5031879;28;20025;-71
2022/09/25 02:08:25;;;;;;;1.15;1.05;;;;;;;;;;5031861;28;20018;-72
2022/09/25 02:10:55;;;;;;;1.38;1.13;;;;;;;;;;5032851;28;20021;-72
2022/09/25 02:13:24;;;;;;;1.23;0.90;;;;;;;;;;5034348;28;20041;-71
2022/09/25 02:15:53;;;;;;;1.38;1.10;;;;;;;;;;5035811;28;20041;-71
2022/09/25 02:21:08;;;;;;;1.67;1.00;;;;;;;;;;5035761;28;20040;-72
2022/09/25 02:23:35;;;;;;;3.53;1.02;;;;;;;;;;5035765;28;20023;-71
2022/09/25 02:26:10;;;;;;;1.67;1.05;;;;;;;;;;5035589;28;20518;-71
2022/09/25 02:28:37;;;;;;;2.20;1.20;;;;;;;;;;5035080;28;20029;-71
2022/09/25 02:31:05;;;;;;;2.00;1.23;;;;;;;;;;5035464;28;20028;-70
2022/09/25 02:33:31;;;;;;;1.30;1.15;;;;;;;;;;5034545;28;20059;-71
2022/09/25 02:35:59;;;;;;;1.48;0.98;;;;;;;;;;5035764;28;20017;-70
2022/09/25 02:38:25;;;;;;;3.13;1.25;;;;;;;;;;5035294;28;20032;-71
2022/09/25 02:41:02;;;;;;;1.45;0.90;;;;;;;;;;5035820;28;20036;-71
2022/09/25 02:43:32;;;;;;;2.42;1.20;;;;;;;;;;5035392;28;20024;-71
2022/09/25 02:46:00;;;;;;;3.33;1.00;;;;;;;;;;5050482;28;20033;-71
2022/09/25 02:48:46;;;;;;;1.63;1.23;;;;;;;;;;5035297;28;20474;-72
2022/09/25 02:51:22;;;;;;;1.48;1.10;;;;;;;;;;5031129;28;20051;-71
2022/09/25 02:54:06;;;;;;;1.48;1.10;;;;;;;;;;5035127;28;20026;-71
2022/09/25 02:56:35;;;;;;;3.80;1.10;;;;;;;;;;5035099;28;20022;-71
2022/09/25 02:59:08;;;;;;;1.65;1.20;;;;;;;;;;5035152;28;20083;-71
2022/09/25 03:01:37;;;;;;;4.22;1.05;;;;;;;;;;5034978;28;20478;-71
2022/09/25 03:04:04;;;;;;;3.70;1.30;;;;;;;;;;5035035;28;20047;-71
2022/09/25 03:06:30;;;;;;;1.83;0.98;;;;;;;;;;5033871;28;20500;-72
2022/09/25 03:08:58;;;;;;;1.30;1.10;;;;;;;;;;5034911;28;20040;-72
2022/09/25 03:11:28;;;;;;;11.77;1.60;;;;;;;;;;5034207;28;20047;-71
2022/09/25 03:13:59;;;;;;;4.05;1.35;;;;;;;;;;5034765;28;20037;-72
2022/09/25 03:16:30;;;;;;;2.25;1.20;;;;;;;;;;5034630;28;20036;-71
2022/09/25 03:18:56;;;;;;;1.90;1.20;;;;;;;;;;5034710;28;20452;-71
2022/09/25 03:21:23;;;;;;;4.78;1.00;;;;;;;;;;5034725;28;20021;-71
2022/09/25 03:23:49;;;;;;;2.00;1.20;;;;;;;;;;5034697;28;20021;-71
2022/09/25 03:26:15;;;;;;;4.28;1.30;;;;;;;;;;5034185;28;20022;-71
2022/09/25 03:28:42;;;;;;;3.20;1.50;;;;;;;;;;5034315;28;20389;-71
2022/09/25 03:31:10;;;;;;;1.35;0.90;;;;;;;;;;5049593;28;20025;-71
2022/09/25 03:33:37;;;;;;;2.20;1.00;;;;;;;;;;5034571;28;20029;-72
2022/09/25 03:36:05;;;;;;;3.15;1.40;;;;;;;;;;5034505;28;20031;-71
2022/09/25 03:38:32;;;;;;;2.53;1.17;;;;;;;;;;5034127;28;20410;-71
2022/09/25 03:40:59;;;;;;;2.03;1.20;;;;;;;;;;5034227;28;20022;-71
2022/09/25 03:43:25;;;;;;;1.85;1.20;;;;;;;;;;5034332;28;20036;-71
2022/09/25 03:45:51;;;;;;;1.38;1.27;;;;;;;;;;5034312;28;20029;-71
2022/09/25 03:48:18;;;;;;;4.20;1.27;;;;;;;;;;5034132;28;20017;-71
2022/09/25 03:50:45;;;;;;;1.42;1.17;;;;;;;;;;5034332;28;20018;-71
2022/09/25 03:53:11;;;;;;;2.20;1.40;;;;;;;;;;5034266;28;20026;-71
2022/09/25 03:55:38;;;;;;;1.48;1.33;;;;;;;;;;5033901;28;20028;-72
2022/09/25 03:58:04;;;;;;;3.65;1.40;;;;;;;;;;5034044;28;20035;-71
2022/09/25 04:00:30;;;;;;;2.13;1.38;;;;;;;;;;5033923;28;20032;-71
2022/09/25 04:02:58;;;;;;;1.50;1.40;;;;;;;;;;5034283;28;20026;-71
2022/09/25 04:05:24;;;;;;;3.78;1.50;;;;;;;;;;5033747;28;20040;-71
2022/09/25 04:07:51;;;;;;;1.52;1.40;;;;;;;;;;5034033;28;20021;-71
2022/09/25 04:10:17;;;;;;;3.72;1.70;;;;;;;;;;5033268;28;20026;-71
2022/09/25 04:12:43;;;;;;;3.38;1.38;;;;;;;;;;5033691;28;20048;-71
2022/09/25 04:15:10;;;;;;;1.85;1.30;;;;;;;;;;5033759;28;20405;-71
2022/09/25 04:17:36;;;;;;;1.83;1.58;;;;;;;;;;5033866;28;20031;-71
2022/09/25 04:20:03;;;;;;;3.03;1.58;;;;;;;;;;5033675;28;20037;-71
2022/09/25 04:22:29;;;;;;;2.00;1.50;;;;;;;;;;5033466;28;20366;-71
2022/09/25 04:24:56;;;;;;;4.43;1.40;;;;;;;;;;5033537;28;20035;-71
2022/09/25 04:27:22;;;;;;;3.33;1.48;;;;;;;;;;5033303;28;20026;-71
2022/09/25 04:29:49;;;;;;;2.33;1.48;;;;;;;;;;5033564;28;20028;-72
2022/09/25 04:35:01;;;;;;;2.10;1.40;;;;;;;;;;5032700;28;20032;-71
2022/09/25 04:37:27;;;;;;;1.20;1.10;;;;;;;;;;5048752;28;20091;-72
2022/09/25 04:39:54;;;;;;;4.30;1.38;;;;;;;;;;5033106;28;20041;-72
2022/09/25 04:42:24;;;;;;;4.35;1.50;;;;;;;;;;5033191;28;20026;-71
2022/09/25 04:44:51;;;;;;;3.65;2.08;;;;;;;;;;5033183;28;20036;-72
2022/09/25 04:47:18;;;;;;;2.95;1.35;;;;;;;;;;5032872;28;20319;-71
2022/09/25 04:49:44;;;;;;;3.10;1.35;;;;;;;;;;5033001;28;20033;-71
2022/09/25 04:52:17;;;;;;;3.63;1.58;;;;;;;;;;5033067;28;20516;-71
2022/09/25 04:54:44;;;;;;;1.67;1.50;;;;;;;;;;5032251;28;20033;-71
2022/09/25 04:57:14;;;;;;;2.65;1.60;;;;;;;;;;5033157;28;20028;-71
2022/09/25 04:59:40;;;;;;;1.90;1.60;;;;;;;;;;5032708;28;20460;-71
2022/09/25 05:02:07;;;;;;;2.38;1.85;;;;;;;;;;5032747;28;20043;-71
2022/09/25 05:04:33;;;;;;;2.33;1.52;;;;;;;;;;5032823;28;20025;-71
2022/09/25 05:06:59;;;;;;;1.90;1.40;;;;;;;;;;5032541;28;20036;-71
2022/09/25 05:09:26;;;;;;;3.13;1.33;;;;;;;;;;5032993;28;20022;-72
2022/09/25 05:11:52;;;;;;;6.03;1.60;;;;;;;;;;5032462;28;20041;-72
2022/09/25 05:14:19;;;;;;;2.78;1.60;;;;;;;;;;5032631;28;20033;-71
2022/09/25 05:16:46;;;;;;;2.40;1.60;;;;;;;;;;5032657;28;20456;-71
2022/09/25 05:19:13;;;;;;;2.53;1.67;;;;;;;;;;5032501;28;20025;-71
2022/09/25 05:21:39;;;;;;;1.48;1.38;;;;;;;;;;5032204;28;20528;-71
2022/09/25 05:24:07;;;;;;;5.18;1.90;;;;;;;;;;5032673;28;20021;-71
2022/09/25 05:26:34;;;;;;;3.03;1.60;;;;;;;;;;5032295;28;20029;-71
2022/09/25 05:29:00;;;;;;;2.42;1.60;;;;;;;;;;5032350;28;20025;-71
2022/09/25 05:31:28;;;;;;;3.20;1.20;;;;;;;;;;5032436;28;20032;-71
2022/09/25 05:33:54;;;;;;;1.83;1.35;;;;;;;;;;5032388;28;20029;-72
2022/09/25 05:36:20;;;;;;;4.90;1.80;;;;;;;;;;5047640;28;20028;-71
2022/09/25 05:38:47;;;;;;;4.13;1.50;;;;;;;;;;5032124;28;20041;-71
2022/09/25 05:41:13;;;;;;;1.63;1.40;;;;;;;;;;5032181;28;20028;-71
2022/09/25 05:43:41;;;;;;;4.70;2.08;;;;;;;;;;5032388;28;20037;-72
2022/09/25 05:46:08;;;;;;;3.17;2.35;;;;;;;;;;5030043;28;20032;-71
2022/09/25 05:48:34;;;;;;;2.88;2.13;;;;;;;;;;5032338;28;20022;-71
2022/09/25 05:51:00;;;;;;;2.38;1.77;;;;;;;;;;5031868;28;20025;-71
2022/09/25 05:53:27;;;;;;;6.32;1.85;;;;;;;;;;5030912;28;20040;-71
2022/09/25 05:55:54;;;;;;;8.15;1.83;;;;;;;;;;5032111;28;20013;-71
2022/09/25 05:58:20;;;;;;;2.85;1.50;;;;;;;;;;5032003;28;20029;-71
2022/09/25 06:00:47;;;;;;;2.67;1.70;;;;;;;;;;5031973;28;20048;-71
2022/09/25 06:03:15;;;;;;;3.83;1.77;;;;;;;;;;5032232;28;20032;-71
2022/09/25 06:05:41;;;;;;;3.00;1.58;;;;;;;;;;5031591;28;20029;-71
2022/09/25 06:08:08;;;;;;;4.70;1.65;;;;;;;;;;5031839;28;20096;-72
2022/09/25 06:10:34;;;;;;;1.95;1.85;;;;;;;;;;5031900;28;20024;-71
2022/09/25 06:13:06;;;;;;;2.88;2.00;;;;;;;;;;5031191;28;20037;-71
2022/09/25 06:15:36;;;;;;;4.82;2.40;;;;;;;;;;5032090;28;20035;-71
2022/09/25 06:18:06;;;;;;;3.22;2.25;;;;;;;;;;5032216;28;20021;-71
2022/09/25 06:20:32;;;;;;;3.22;1.80;;;;;;;;;;5030144;28;20025;-71
2022/09/25 06:23:02;;;;;;;6.80;1.70;;;;;;;;;;5032092;28;20051;-72
2022/09/25 06:25:29;;;;;;;4.20;1.73;;;;;;;;;;5030667;28;20034;-71
2022/09/25 06:27:56;;;;;;;2.67;1.30;;;;;;;;;;5031760;28;20017;-71
2022/09/25 06:30:26;;;;;;;3.25;1.70;;;;;;;;;;5031986;28;20064;-71
2022/09/25 06:32:56;;;;;;;3.28;1.42;;;;;;;;;;5031749;28;20032;-71
2022/09/25 06:35:22;;;;;;;8.93;1.60;;;;;;;;;;5031486;28;20017;-71
2022/09/25 06:37:49;;;;;;;2.33;1.77;;;;;;;;;;5031385;28;20030;-72
2022/09/25 06:40:15;;;;;;;3.45;1.50;;;;;;;;;;5031882;28;20044;-71
2022/09/25 06:42:41;;;;;;;1.60;1.48;;;;;;;;;;5031655;28;20034;-71
2022/09/25 06:45:10;;;;;;;2.13;1.63;;;;;;;;;;5031903;28;20039;-71
2022/09/25 06:47:36;;;;;;;3.20;1.45;;;;;;;;;;5031460;28;20030;-71
2022/09/25 06:50:03;;;;;;;7.35;1.67;;;;;;;;;;5030352;28;20021;-71
2022/09/25 06:52:29;;;;;;;1.60;1.50;;;;;;;;;;5031671;28;20029;-71
2022/09/25 06:54:56;;;;;;;1.50;1.40;;;;;;;;;;5031685;28;20020;-71
2022/09/25 06:57:22;;;;;;;1.65;1.50;;;;;;;;;;5033301;28;20375;-72
2022/09/25 06:59:49;;;;;;;3.92;1.60;;;;;;;;;;5035209;28;20040;-71
2022/09/25 07:05:00;;;;;;;3.25;1.40;;;;;;;;;;5034830;28;20474;-71
2022/09/25 07:07:26;;;;;;;1.73;1.60;;;;;;;;;;5034988;28;20026;-71
2022/09/25 07:09:52;;;;;;;1.65;1.40;;;;;;;;;;5034557;28;20482;-71
2022/09/25 07:12:20;;;;;;;1.85;1.50;;;;;;;;;;5034445;28;20090;-71
2022/09/25 07:14:47;;;;;;;2.38;1.70;;;;;;;;;;5035271;28;20029;-71
2022/09/25 07:17:13;;;;;;;2.47;1.38;;;;;;;;;;5034549;28;20389;-72
2022/09/25 07:19:40;;;;;;;3.05;1.90;;;;;;;;;;5034673;28;20039;-71
2022/09/25 07:22:06;;;;;;;4.00;1.60;;;;;;;;;;5034927;28;20028;-71
2022/09/25 07:24:32;;;;;;;2.50;1.52;;;;;;;;;;5034855;28;20033;-72
2022/09/25 07:26:59;;;;;;;2.08;1.55;;;;;;;;;;5035027;28;20017;-71
2022/09/25 07:29:25;;;;;;;3.88;1.48;;;;;;;;;;5034424;28;20034;-71
2022/09/25 07:31:51;;;;;;;2.13;1.60;;;;;;;;;;5034678;28;20026;-72
2022/09/25 07:34:17;;;;;;;3.55;1.48;;;;;;;;;;5034525;28;20393;-72
2022/09/25 07:36:45;;;;;;;2.92;1.70;;;;;;;;;;5034632;28;20028;-71
2022/09/25 07:39:11;;;;;;;2.75;1.58;;;;;;;;;;5034530;28;20494;-71
2022/09/25 07:41:37;;;;;;;5.93;1.95;;;;;;;;;;5034763;28;20029;-72
2022/09/25 07:44:04;;;;;;;4.90;1.48;;;;;;;;;;5034660;28;20021;-71
2022/09/25 07:46:30;;;;;;;3.90;2.08;;;;;;;;;;5034551;28;20021;-71
2022/09/25 07:48:57;;;;;;;4.40;2.00;;;;;;;;;;5034127;28;20463;-72
2022/09/25 07:51:25;;;;;;;2.00;1.80;;;;;;;;;;5034236;28;20026;-71
2022/09/25 07:53:51;;;;;;;3.30;2.10;;;;;;;;;;5034082;28;20029;-71
2022/09/25 07:56:18;;;;;;;2.80;2.08;;;;;;;;;;5034136;28;20489;-71
2022/09/25 07:58:44;;;;;;;3.92;1.90;;;;;;;;;;5034011;28;20033;-71
2022/09/25 08:01:11;;;;;;;6.43;1.95;;;;;;;;;;5033691;28;20401;-72
2022/09/25 08:03:38;;;;;;;3.78;2.00;;;;;;;;;;5034220;28;20021;-71
2022/09/25 08:06:05;;;;;;;4.53;1.90;;;;;;;;;;5034073;28;20029;-72
2022/09/25 08:08:34;;;;;;;4.30;2.03;;;;;;;;;;5032722;28;20022;-71
2022/09/25 08:11:01;;;;;;;2.97;2.40;;;;;;;;;;5033718;28;20496;-71
2022/09/25 08:13:28;;;;;;;3.33;1.92;;;;;;;;;;5033676;28;20048;-71
2022/09/25 08:15:55;;;;;;;2.28;1.80;;;;;;;;;;5033750;28;20026;-71
2022/09/25 08:18:21;;;;;;;5.15;2.00;;;;;;;;;;5033996;28;20035;-71
2022/09/25 08:20:47;;;;;;;3.45;2.10;;;;;;;;;;5033961;28;20482;-72
2022/09/25 08:23:14;;;;;;;3.08;1.95;;;;;;;;;;5034029;28;20026;-71
2022/09/25 08:25:40;;;;;;;2.67;1.83;;;;;;;;;;5033653;28;20474;-71
2022/09/25 08:28:07;;;;;;;2.38;2.10;;;;;;;;;;5033358;28;20290;-72
2022/09/25 08:30:33;;;;;;;3.90;2.60;;;;;;;;;;5033231;28;20035;-71
2022/09/25 08:32:59;;;;;;;3.63;2.58;;;;;;;;;;5033383;28;20055;-72
2022/09/25 08:35:26;;;;;;;4.00;2.60;;;;;;;;;;5033592;28;20056;-72
2022/09/25 08:37:53;;;;;;;4.30;2.50;;;;;;;;;;5033110;28;20486;-72
2022/09/25 08:40:26;;;;;;;2.85;2.40;;;;;;;;;;5033493;28;20037;-72
2022/09/25 08:42:53;;;;;;;3.67;2.35;;;;;;;;;;5033686;28;20029;-71
2022/09/25 08:51:22;;;;;;;6.38;2.42;;;;;;;;;;5033321;28;20032;-72
2022/09/25 08:53:48;;;;;;;2.63;2.20;;;;;;;;;;5032982;28;20083;-70
2022/09/25 08:56:18;;;;;;;3.75;2.03;;;;;;;;;;5033042;28;20385;-72
2022/09/25 08:58:51;;;;;;;5.97;2.50;;;;;;;;;;5032940;28;20033;-71
2022/09/25 09:01:36;;;;;;;3.35;1.98;;;;;;;;;;5032903;28;20029;-72
2022/09/25 09:04:21;;;;;;;2.42;2.22;;;;;;;;;;5031851;28;20056;-71
2022/09/25 09:06:51;;;;;;;3.72;1.70;;;;;;;;;;5033192;28;20025;-71
2022/09/25 09:09:20;;;;;;;2.58;1.90;;;;;;;;;;5032651;28;20026;-71
2022/09/25 09:11:51;;;;;;;2.10;1.90;;;;;;;;;;5032523;28;20095;-71
2022/09/25 09:14:17;;;;;;;;;;;;;;;;;;5032603;28;20034;-72
2022/09/25 09:17:01;;;;;;;2.72;1.92;;;;;;;;;;5031470;28;19915;-71
2022/09/25 09:19:27;;;;;;;4.05;1.95;;;;;;;;;;5032327;28;20038;-72
2022/09/25 09:22:10;;;;;;;3.88;1.80;;;;;;;;;;5032513;28;20025;-72
2022/09/25 09:24:42;;;;;;;2.33;1.90;;;;;;;;;;5032447;28;20028;-72
2022/09/25 09:27:14;;;;;;;1.85;1.48;;;;;;;;;;5032406;28;20474;-72
2022/09/25 09:29:49;;;;;;;5.10;2.10;;;;;;;;;;5031799;28;20567;-72
2022/09/25 09:32:21;;;;;;;4.13;2.25;;;;;;;;;;5032888;28;20034;-72
2022/09/25 09:35:00;;;;;;;4.60;2.10;;;;;;;;;;5032318;28;20032;-72
2022/09/25 09:37:45;;;;;;;3.20;1.98;;;;;;;;;;5031998;28;20031;-72
2022/09/25 09:40:22;;;;;;;3.50;2.05;;;;;;;;;;5031145;28;20060;-72
2022/09/25 09:42:58;;;;;;;2.40;1.70;;;;;;;;;;5030841;28;20051;-71
2022/09/25 09:45:44;;;;;;;3.35;2.03;;;;;;;;;;5032538;28;20033;-72
2022/09/25 09:48:14;;;;;;;5.45;2.10;;;;;;;;;;5032407;28;20025;-72
2022/09/25 09:50:43;;;;;;;2.70;1.80;;;;;;;;;;5031981;28;20014;-72
2022/09/25 09:53:13;;;;;;;2.67;1.80;;;;;;;;;;5032404;28;20075;-71
2022/09/25 09:55:50;;;;;;;2.60;1.95;;;;;;;;;;5032012;28;20022;-72
2022/09/25 09:58:22;;;;;;;6.65;2.30;;;;;;;;;;5031887;28;20040;-71
2022/09/25 10:00:49;;;;;;;5.35;2.15;;;;;;;;;;5032271;28;20039;-72
2022/09/25 10:03:22;;;;;;;3.15;1.88;;;;;;;;;;5032080;28;20026;-71
2022/09/25 10:05:49;;;;;;;3.58;1.83;;;;;;;;;;5032188;28;20029;-72
2022/09/25 10:08:16;;;;;;;3.05;1.95;;;;;;;;;;5031991;28;20024;-72
2022/09/25 10:10:47;;;;;;;5.03;2.10;;;;;;;;;;5047220;28;20478;-72
2022/09/25 10:13:14;;;;;;;;;;;;;;;;;;5031767;28;20040;-72
2022/09/25 10:15:47;;;;;;;2.88;1.70;;;;;;;;;;5030665;28;19916;-72
2022/09/25 10:18:14;;;;;;;2.80;2.50;;;;;;;;;;5032066;28;20033;-71
2022/09/25 10:20:44;;;;;;;7.00;1.75;;;;;;;;;;5030648;28;20486;-72
2022/09/25 10:23:31;;;;;;;3.97;1.60;;;;;;;;;;5031768;28;20063;-72
2022/09/25 10:25:57;;;;;;;2.30;1.55;;;;;;;;;;5030370;28;20033;-72
2022/09/25 10:28:28;;;;;;;2.45;1.67;;;;;;;;;;5031701;28;20394;-72
2022/09/25 10:30:55;;;;;;;4.65;1.85;;;;;;;;;;5032001;28;20024;-71
2022/09/25 10:33:23;;;;;;;3.15;2.00;;;;;;;;;;5035128;28;20524;-72
2022/09/25 10:35:52;;;;;;;2.63;1.35;;;;;;;;;;5035542;28;20029;-71
2022/09/25 10:38:26;;;;;;;1.38;1.15;;;;;;;;;;5035282;28;20022;-71
2022/09/25 10:41:01;;;;;;;2.58;1.30;;;;;;;;;;5035184;28;20517;-72
2022/09/25 10:43:28;;;;;;;3.25;1.23;;;;;;;;;;5035798;28;20014;-71
2022/09/25 10:46:05;;;;;;;2.95;1.38;;;;;;;;;;5035734;28;20033;-72
2022/09/25 10:51:20;;;;;;;2.97;1.15;;;;;;;;;;5035267;28;20036;-72
2022/09/25 10:53:51;;;;;;;2.35;1.20;;;;;;;;;;5035019;28;20025;-72
2022/09/25 10:56:19;;;;;;;1.95;1.55;;;;;;;;;;5034994;28;20017;-72
2022/09/25 10:58:56;;;;;;;2.35;1.20;;;;;;;;;;5035141;28;20036;-72
2022/09/25 11:01:34;;;;;;;2.55;1.67;;;;;;;;;;5035117;28;20543;-72
2022/09/25 11:04:03;;;;;;;2.17;1.25;;;;;;;;;;5035093;28;20024;-71
2022/09/25 11:06:31;;;;;;;3.15;1.17;;;;;;;;;;5034991;28;20452;-72
2022/09/25 11:09:15;;;;;;;3.05;1.33;;;;;;;;;;5035254;28;20022;-72
2022/09/25 11:11:45;;;;;;;4.95;1.20;;;;;;;;;;5034784;28;20033;-72
2022/09/25 11:14:25;;;;;;;3.20;1.20;;;;;;;;;;5034854;28;20482;-72
2022/09/25 11:16:51;;;;;;;4.35;1.33;;;;;;;;;;5035140;28;20017;-72
2022/09/25 11:19:24;;;;;;;3.05;1.20;;;;;;;;;;5034768;28;20033;-72
2022/09/25 11:21:59;;;;;;;2.90;1.20;;;;;;;;;;5034677;28;20041;-72
2022/09/25 11:24:36;;;;;;;2.92;1.30;;;;;;;;;;5034384;28;20010;-72
2022/09/25 11:27:02;;;;;;;2.17;1.25;;;;;;;;;;5034930;28;20075;-72
2022/09/25 11:29:41;;;;;;;1.83;1.30;;;;;;;;;;5034386;28;20020;-72
2022/09/25 11:32:19;;;;;;;1.55;1.00;;;;;;;;;;5034663;28;20030;-71
2022/09/25 11:34:59;;;;;;;1.63;0.95;;;;;;;;;;5034416;28;20390;-72
2022/09/25 11:37:49;;;;;;;1.90;1.45;;;;;;;;;;5034302;28;20035;-71
2022/09/25 11:43:06;;;;;;;2.53;1.45;;;;;;;;;;5034706;28;20014;-72
2022/09/25 11:45:41;;;;;;;1.53;1.30;;;;;;;;;;5034721;28;20024;-72
2022/09/25 11:48:23;;;;;;;2.50;1.30;;;;;;;;;;5034526;28;20021;-72
2022/09/25 11:51:04;;;;;;;3.38;1.50;;;;;;;;;;5034475;28;20033;-72
2022/09/25 11:53:32;;;;;;;1.95;1.20;;;;;;;;;;5033843;28;20527;-71
2022/09/25 11:56:09;;;;;;;1.40;1.30;;;;;;;;;;5034292;28;20035;-72
2022/09/25 11:58:35;;;;;;;2.00;1.30;;;;;;;;;;5034203;28;20025;-72
2022/09/25 12:01:20;;;;;;;2.63;1.30;;;;;;;;;;5034073;28;20037;-72
2022/09/25 12:03:56;;;;;;;2.60;1.70;;;;;;;;;;5034242;28;20028;-72
2022/09/25 12:06:26;;;;;;;2.08;1.45;;;;;;;;;;5034104;28;20026;-72
2022/09/25 12:09:01;;;;;;;1.42;1.27;;;;;;;;;;5033602;28;20398;-72
2022/09/25 12:11:45;;;;;;;3.42;1.20;;;;;;;;;;5033504;28;20055;-72
2022/09/25 12:14:35;;;;;;;1.80;1.20;;;;;;;;;;5032671;28;20041;-72
2022/09/25 12:17:10;;;;;;;1.95;1.27;;;;;;;;;;5033608;28;20474;-72
2022/09/25 12:19:38;;;;;;;5.05;1.40;;;;;;;;;;5033666;28;20041;-72
2022/09/25 12:22:31;;;;;;;3.20;1.60;;;;;;;;;;5033382;28;20029;-72
2022/09/25 12:25:03;;;;;;;2.20;1.70;;;;;;;;;;5011632;28;20422;-72
2022/09/25 12:27:44;;;;;;;2.25;1.35;;;;;;;;;;5011787;28;20064;-72
2022/09/25 12:30:25;;;;;;;2.20;1.40;;;;;;;;;;5011815;28;20101;-72
2022/09/25 12:32:52;;;;;;;;;;;;;;;;;;5012408;28;20030;-72
2022/09/25 12:35:20;;;;;;;4.10;1.00;;;;;;;;;;5011267;28;19905;-72
2022/09/25 12:38:04;;;;;;;2.22;1.15;;;;;;;;;;5010974;28;20092;-72
2022/09/25 12:40:32;;;;;;;1.70;1.40;;;;;;;;;;5011260;28;20141;-71
2022/09/25 12:43:02;;;;;;;2.25;0.98;;;;;;;;;;5011347;28;20038;-72
2022/09/25 12:45:35;;;;;;;1.42;1.05;;;;;;;;;;5011563;28;20106;-72
2022/09/25 12:48:11;;;;;;;1.52;1.10;;;;;;;;;;5011396;28;20022;-72
2022/09/25 12:50:57;;;;;;;2.80;1.17;;;;;;;;;;4995004;28;20048;-72
2022/09/25 12:53:44;;;;;;;1.73;1.10;;;;;;;;;;5011412;28;20040;-72
2022/09/25 12:56:23;;;;;;;3.72;1.10;;;;;;;;;;5010448;28;20038;-73
2022/09/25 12:59:07;;;;;;;1.15;1.05;;;;;;;;;;5011146;28;20022;-72
2022/09/25 13:01:56;;;;;;;1.23;1.05;;;;;;;;;;5020675;28;20047;-72
2022/09/25 13:04:33;;;;;;;1.10;0.90;;;;;;;;;;5032884;28;20025;-72
2022/09/25 13:07:18;;;;;;;1.17;0.90;;;;;;;;;;5032743;28;20017;-73
2022/09/25 13:09:45;;;;;;;1.75;0.90;;;;;;;;;;5031631;28;20482;-72
2022/09/25 13:12:15;;;;;;;1.52;1.08;;;;;;;;;;5032650;28;20502;-72
2022/09/25 13:14:45;;;;;;;0.82;0.82;;;;;;;;;;5032847;28;20034;-72
2022/09/25 13:17:12;;;;;;;2.13;1.00;;;;;;;;;;5032877;28;20032;-72
2022/09/25 13:19:38;;;;;;;1.17;1.00;;;;;;;;;;5032521;28;20037;-71
2022/09/25 13:22:06;;;;;;;1.40;1.02;;;;;;;;;;5032421;28;20024;-72
2022/09/25 13:24:43;;;;;;;2.38;0.80;;;;;;;;;;5032627;28;20020;-72
2022/09/25 13:27:13;;;;;;;0.80;0.80;;;;;;;;;;5032362;28;20026;-72
2022/09/25 13:29:40;;;;;;;0.80;0.80;;;;;;;;;;5032363;28;20025;-72
2022/09/25 13:32:06;;;;;;;0.80;0.80;;;;;;;;;;5032690;28;20063;-72
2022/09/25 13:34:42;;;;;;;0.95;0.80;;;;;;;;;;5032184;28;20022;-72
2022/09/25 13:37:12;;;;;;;1.67;0.70;;;;;;;;;;5032325;28;20021;-72
2022/09/25 13:42:38;;;;;;;1.15;0.80;;;;;;;;;;5012520;28;20029;-71
2022/09/25 13:45:25;;;;;;;0.52;0.50;;;;;;;;;;5012473;28;20067;-73
2022/09/25 13:47:59;;;;;;;1.17;0.85;;;;;;;;;;5012510;28;20022;-72
2022/09/25 13:50:25;;;;;;;0.70;0.70;;;;;;;;;;5027715;28;20040;-73
2022/09/25 13:53:15;;;;;;;0.55;0.55;;;;;;;;;;5012593;28;20025;-73
2022/09/25 13:55:40;;;;;;;0.50;0.50;;;;;;;;;;5012332;28;20040;-73
2022/09/25 13:58:16;;;;;;;0.82;0.63;;;;;;;;;;5011199;28;20028;-72
2022/09/25 14:00:57;;;;;;;0.85;0.70;;;;;;;;;;5012273;28;20036;-73
2022/09/25 14:03:35;;;;;;;0.47;0.47;;;;;;;;;;5012255;28;20026;-72
2022/09/25 14:06:03;;;;;;;0.73;0.73;;;;;;;;;;5012231;28;20029;-73
2022/09/25 14:08:31;;;;;;;1.13;1.02;;;;;;;;;;5015947;28;20022;-73
2022/09/25 14:11:00;;;;;;;1.23;0.70;;;;;;;;;;5016306;28;20037;-73
2022/09/25 14:13:27;;;;;;;0.88;0.80;;;;;;;;;;5016363;28;20038;-73
2022/09/25 14:15:55;;;;;;;1.10;0.80;;;;;;;;;;5016035;28;20022;-73
2022/09/25 14:18:25;;;;;;;0.70;0.70;;;;;;;;;;5015773;28;20395;-73
2022/09/25 14:20:57;;;;;;;3.13;0.80;;;;;;;;;;5016256;28;20026;-73
2022/09/25 14:23:25;;;;;;;1.10;0.88;;;;;;;;;;5016166;28;20034;-73
2022/09/25 14:26:01;;;;;;;2.07;0.70;;;;;;;;;;5016353;28;20025;-73
2022/09/25 14:28:31;;;;;;;0.75;0.75;;;;;;;;;;5016069;28;20037;-72
2022/09/25 14:31:13;;;;;;;1.30;0.70;;;;;;;;;;5015957;28;20056;-72
2022/09/25 14:33:58;;;;;;;0.93;0.73;;;;;;;;;;5015921;28;20026;-72
2022/09/25 14:36:27;;;;;;;3.63;0.85;;;;;;;;;;5015792;28;20010;-72
2022/09/25 14:39:12;;;;;;;0.70;0.60;;;;;;;;;;5029731;28;20025;-72
2022/09/25 14:41:51;;;;;;;0.88;0.75;;;;;;;;;;5035650;28;20401;-72
2022/09/25 14:44:40;;;;;;;1.02;0.80;;;;;;;;;;5035440;28;20048;-72
2022/09/25 14:47:10;;;;;;;0.70;0.70;;;;;;;;;;5034937;28;20508;-72
2022/09/25 14:49:39;;;;;;;2.72;0.80;;;;;;;;;;5035432;28;20031;-72
2022/09/25 14:52:08;;;;;;;0.90;0.73;;;;;;;;;;5035526;28;20025;-72
2022/09/25 14:54:37;;;;;;;0.60;0.60;;;;;;;;;;5035302;28;20386;-72
2022/09/25 14:57:04;;;;;;;0.82;0.80;;;;;;;;;;5035104;28;20364;-72
2022/09/25 14:59:45;;;;;;;1.27;0.75;;;;;;;;;;5035373;28;20037;-72
2022/09/25 15:02:24;;;;;;;1.02;0.80;;;;;;;;;;5034790;28;20039;-72
2022/09/25 15:04:51;;;;;;;1.02;0.80;;;;;;;;;;5035254;28;20029;-72
2022/09/25 15:07:23;;;;;;;1.63;0.85;;;;;;;;;;5035327;28;20033;-72
2022/09/25 15:09:54;;;;;;;0.82;0.70;;;;;;;;;;5034887;28;20482;-72
2022/09/25 15:12:25;;;;;;;1.15;0.70;;;;;;;;;;5034665;28;20041;-72
2022/09/25 15:15:04;;;;;;;0.93;0.70;;;;;;;;;;5034832;28;20037;-72
2022/09/25 15:17:31;;;;;;;0.70;0.70;;;;;;;;;;5032895;28;20040;-72
2022/09/25 15:20:00;;;;;;;1.67;0.77;;;;;;;;;;5034785;28;20049;-72
2022/09/25 15:22:32;;;;;;;0.80;0.80;;;;;;;;;;5034729;28;20018;-72
2022/09/25 15:24:59;;;;;;;0.82;0.73;;;;;;;;;;5034794;28;20021;-72
2022/09/25 15:27:27;;;;;;;0.80;0.80;;;;;;;;;;5034887;28;20025;-70
2022/09/25 15:29:54;;;;;;;0.73;0.70;;;;;;;;;;5034841;28;20026;-70